Aérodrome :
LOGIN :

S'inscrire | Disclaimer

   EN    FR    IT 

 










Légende :    VFR   VFR Marginal   IFR   IFR Intensif   IFR Très Intensif
Visi : 
Plafond : 
>= 8 km
>= 3000ft
5 à 8 km
1000 à 3000 ft
1500m à 5 km
500 à 1000 ft
800 à 1500m
200 à 500 ft
< 800m
< 200 ft
Symboles :   Orages  Brouillard  Fortes neiges  Fortes précipitations  Vent > 20 kt
SIGMETs :   Divers  Orages  Givrage  Turbulence  Onde Orograph.  Cendres Volcan.







- Altitude de l'aérodrome : -15 ft
- Code IATA : RTM


EHRD - Rotterdam Zestienhoven

DERNIER METAR :
  • 190855Z AUTO 24013KT 210V270 9999 FEW010 07/05 Q1017 NOSIG

METARs EXPIRÉS :
  • 190825Z AUTO 23011KT 9999 FEW010 07/06 Q1017 NOSIG
  • 190755Z AUTO 23010KT 9999 FEW010 06/05 Q1017 NOSIG
  • 190725Z AUTO 23010KT 9999 FEW009 06/05 Q1017 NOSIG
  • 190655Z AUTO 23010KT 9999 NCD 06/05 Q1016 NOSIG
  • 190625Z AUTO 24012KT 9999 NCD 06/05 Q1016 NOSIG

TAF TAF EHRD
Valide du 19 à 06h jusqu'au 20 à 12h UTC


190457Z 1906/2012 24010KT CAVOK
BECMG 1907/1910 24016KT SCT020
PROB30 1907/1912 BKN013
BECMG 1915/1918 22008KT
Pas de NOTAMs connus pour ce terrain.



MET'MAP, la Météo Aéronautique d'un coup d'oeil ! - Copyright ORBIFLY Décembre 2007 - Disclaimer

ORBIFLY MET'MAP TEAM :

Programmation & Développement : Alexandra Zaïnal
Conception & Développement : Baudouin d'Aumeries
Co-Programmation & Développement : Marc-Olivier Méhu
Soutien technique & logistique : Manuel Goepfert

Contact : metmap@orbifly.com




SOURCES & CREDITS :

   NOAA